sensor_id;sensor_type;location;lat;lon;timestamp;temperature;humidity
22917;DHT22;11624;53.250;7.456;2022-09-09T00:00:15;20.27;61.54
22917;DHT22;11624;53.250;7.456;2022-09-09T00:02:49;20.27;61.76
22917;DHT22;11624;53.250;7.456;2022-09-09T00:05:24;20.22;61.77
22917;DHT22;11624;53.250;7.456;2022-09-09T00:07:55;20.20;62.17
22917;DHT22;11624;53.250;7.456;2022-09-09T00:10:30;20.18;62.28
22917;DHT22;11624;53.250;7.456;2022-09-09T00:13:08;20.18;62.19
22917;DHT22;11624;53.250;7.456;2022-09-09T00:15:50;20.17;62.15
22917;DHT22;11624;53.250;7.456;2022-09-09T00:18:27;20.18;62.35
22917;DHT22;11624;53.250;7.456;2022-09-09T00:21:01;20.15;62.39
22917;DHT22;11624;53.250;7.456;2022-09-09T00:23:33;20.16;62.53
22917;DHT22;11624;53.250;7.456;2022-09-09T00:26:09;20.13;62.48
22917;DHT22;11624;53.250;7.456;2022-09-09T00:28:44;20.12;62.63
22917;DHT22;11624;53.250;7.456;2022-09-09T00:31:18;20.11;62.55
22917;DHT22;11624;53.250;7.456;2022-09-09T00:33:49;20.13;62.70
22917;DHT22;11624;53.250;7.456;2022-09-09T00:36:20;20.11;62.80
22917;DHT22;11624;53.250;7.456;2022-09-09T00:38:52;20.10;63.02
22917;DHT22;11624;53.250;7.456;2022-09-09T00:41:26;20.11;62.90
22917;DHT22;11624;53.250;7.456;2022-09-09T00:44:02;20.12;62.90
22917;DHT22;11624;53.250;7.456;2022-09-09T00:46:59;20.11;62.80
22917;DHT22;11624;53.250;7.456;2022-09-09T00:49:38;20.13;63.00
22917;DHT22;11624;53.250;7.456;2022-09-09T00:52:20;20.13;63.18
22917;DHT22;11624;53.250;7.456;2022-09-09T00:55:00;20.14;63.34
22917;DHT22;11624;53.250;7.456;2022-09-09T00:57:32;20.16;63.63
22917;DHT22;11624;53.250;7.456;2022-09-09T01:00:17;20.16;63.37
22917;DHT22;11624;53.250;7.456;2022-09-09T01:03:00;20.18;63.36
22917;DHT22;11624;53.250;7.456;2022-09-09T01:05:36;20.24;63.23
22917;DHT22;11624;53.250;7.456;2022-09-09T01:08:17;20.21;63.11
22917;DHT22;11624;53.250;7.456;2022-09-09T01:10:56;20.20;63.12
22917;DHT22;11624;53.250;7.456;2022-09-09T01:13:30;20.20;63.02
22917;DHT22;11624;53.250;7.456;2022-09-09T01:16:08;20.18;62.97
22917;DHT22;11624;53.250;7.456;2022-09-09T01:18:44;20.17;62.98
22917;DHT22;11624;53.250;7.456;2022-09-09T01:21:20;20.13;62.92
22917;DHT22;11624;53.250;7.456;2022-09-09T01:24:10;20.11;62.89
22917;DHT22;11624;53.250;7.456;2022-09-09T01:27:09;20.11;62.89
22917;DHT22;11624;53.250;7.456;2022-09-09T01:29:38;20.12;62.85
22917;DHT22;11624;53.250;7.456;2022-09-09T01:32:39;20.09;62.55
22917;DHT22;11624;53.250;7.456;2022-09-09T01:35:12;20.07;62.56
22917;DHT22;11624;53.250;7.456;2022-09-09T01:37:42;20.07;62.47
22917;DHT22;11624;53.250;7.456;2022-09-09T01:40:11;20.03;62.28
22917;DHT22;11624;53.250;7.456;2022-09-09T01:42:41;20.01;62.32
22917;DHT22;11624;53.250;7.456;2022-09-09T01:45:09;19.97;62.28
22917;DHT22;11624;53.250;7.456;2022-09-09T01:47:37;19.89;62.36
22917;DHT22;11624;53.250;7.456;2022-09-09T01:50:16;19.85;62.46
22917;DHT22;11624;53.250;7.456;2022-09-09T01:52:47;19.82;62.54
22917;DHT22;11624;53.250;7.456;2022-09-09T01:55:26;19.80;62.55
22917;DHT22;11624;53.250;7.456;2022-09-09T01:58:07;19.79;62.44
22917;DHT22;11624;53.250;7.456;2022-09-09T02:00:44;19.77;62.56
22917;DHT22;11624;53.250;7.456;2022-09-09T02:03:20;19.80;62.53
22917;DHT22;11624;53.250;7.456;2022-09-09T02:06:04;19.86;62.24
22917;DHT22;11624;53.250;7.456;2022-09-09T02:08:42;19.87;62.15
22917;DHT22;11624;53.250;7.456;2022-09-09T02:11:13;19.89;62.24
22917;DHT22;11624;53.250;7.456;2022-09-09T02:13:48;19.88;62.15
22917;DHT22;11624;53.250;7.456;2022-09-09T02:16:22;19.87;62.03
22917;DHT22;11624;53.250;7.456;2022-09-09T02:18:56;19.77;62.30
22917;DHT22;11624;53.250;7.456;2022-09-09T02:21:35;19.71;62.55
22917;DHT22;11624;53.250;7.456;2022-09-09T02:24:05;19.71;62.64
22917;DHT22;11624;53.250;7.456;2022-09-09T02:26:42;19.70;62.73
22917;DHT22;11624;53.250;7.456;2022-09-09T02:29:19;19.70;62.76
22917;DHT22;11624;53.250;7.456;2022-09-09T02:31:49;19.77;62.84
22917;DHT22;11624;53.250;7.456;2022-09-09T02:34:23;19.77;63.02
22917;DHT22;11624;53.250;7.456;2022-09-09T02:36:55;19.82;63.11
22917;DHT22;11624;53.250;7.456;2022-09-09T02:39:26;19.87;63.07
22917;DHT22;11624;53.250;7.456;2022-09-09T02:41:54;19.84;63.21
22917;DHT22;11624;53.250;7.456;2022-09-09T02:44:30;19.88;63.29
22917;DHT22;11624;53.250;7.456;2022-09-09T02:47:13;19.89;63.07
22917;DHT22;11624;53.250;7.456;2022-09-09T02:49:51;19.92;63.15
22917;DHT22;11624;53.250;7.456;2022-09-09T02:52:26;19.92;63.21
22917;DHT22;11624;53.250;7.456;2022-09-09T02:55:04;19.97;63.11
22917;DHT22;11624;53.250;7.456;2022-09-09T02:57:34;19.98;63.19
22917;DHT22;11624;53.250;7.456;2022-09-09T03:00:07;20.00;63.11
22917;DHT22;11624;53.250;7.456;2022-09-09T03:02:35;20.01;63.10
22917;DHT22;11624;53.250;7.456;2022-09-09T03:05:06;19.91;63.43
22917;DHT22;11624;53.250;7.456;2022-09-09T03:07:35;19.89;63.50
22917;DHT22;11624;53.250;7.456;2022-09-09T03:10:03;19.89;63.50
22917;DHT22;11624;53.250;7.456;2022-09-09T03:12:32;19.97;63.34
22917;DHT22;11624;53.250;7.456;2022-09-09T03:15:00;20.00;63.17
22917;DHT22;11624;53.250;7.456;2022-09-09T03:17:29;20.00;63.11
22917;DHT22;11624;53.250;7.456;2022-09-09T03:19:57;19.99;63.14
22917;DHT22;11624;53.250;7.456;2022-09-09T03:22:25;19.94;63.24
22917;DHT22;11624;53.250;7.456;2022-09-09T03:24:56;19.98;63.15
22917;DHT22;11624;53.250;7.456;2022-09-09T03:27:24;19.96;63.04
22917;DHT22;11624;53.250;7.456;2022-09-09T03:29:52;19.94;63.01
22917;DHT22;11624;53.250;7.456;2022-09-09T03:32:23;19.87;63.13
22917;DHT22;11624;53.250;7.456;2022-09-09T03:34:55;19.85;63.19
22917;DHT22;11624;53.250;7.456;2022-09-09T03:37:23;19.87;63.18
22917;DHT22;11624;53.250;7.456;2022-09-09T03:39:52;19.85;63.24
22917;DHT22;11624;53.250;7.456;2022-09-09T03:42:22;19.88;63.12
22917;DHT22;11624;53.250;7.456;2022-09-09T03:44:53;19.89;63.02
22917;DHT22;11624;53.250;7.456;2022-09-09T03:47:24;19.85;63.11
22917;DHT22;11624;53.250;7.456;2022-09-09T03:49:58;19.82;63.21
22917;DHT22;11624;53.250;7.456;2022-09-09T03:52:27;19.82;63.41
22917;DHT22;11624;53.250;7.456;2022-09-09T03:54:56;19.82;63.44
22917;DHT22;11624;53.250;7.456;2022-09-09T03:57:24;19.83;63.46
22917;DHT22;11624;53.250;7.456;2022-09-09T03:59:52;19.84;63.44
22917;DHT22;11624;53.250;7.456;2022-09-09T04:02:21;19.87;63.44
22917;DHT22;11624;53.250;7.456;2022-09-09T04:04:49;19.90;63.39
22917;DHT22;11624;53.250;7.456;2022-09-09T04:07:19;19.90;63.37
22917;DHT22;11624;53.250;7.456;2022-09-09T04:09:48;19.90;63.45
22917;DHT22;11624;53.250;7.456;2022-09-09T04:12:16;19.94;63.44
22917;DHT22;11624;53.250;7.456;2022-09-09T04:14:44;19.92;63.46
22917;DHT22;11624;53.250;7.456;2022-09-09T04:17:12;19.95;63.45
22917;DHT22;11624;53.250;7.456;2022-09-09T04:19:41;19.96;63.40
22917;DHT22;11624;53.250;7.456;2022-09-09T04:22:10;19.94;63.47
22917;DHT22;11624;53.250;7.456;2022-09-09T04:24:39;19.92;63.50
22917;DHT22;11624;53.250;7.456;2022-09-09T04:27:14;19.94;63.52
22917;DHT22;11624;53.250;7.456;2022-09-09T04:29:42;19.95;63.52
22917;DHT22;11624;53.250;7.456;2022-09-09T04:32:10;19.95;63.57
22917;DHT22;11624;53.250;7.456;2022-09-09T04:34:39;19.94;63.63
22917;DHT22;11624;53.250;7.456;2022-09-09T04:37:08;19.97;63.60
22917;DHT22;11624;53.250;7.456;2022-09-09T04:39:39;20.00;63.64
22917;DHT22;11624;53.250;7.456;2022-09-09T04:42:07;20.02;63.55
22917;DHT22;11624;53.250;7.456;2022-09-09T04:44:35;20.03;63.50
22917;DHT22;11624;53.250;7.456;2022-09-09T04:47:04;20.02;63.56
22917;DHT22;11624;53.250;7.456;2022-09-09T04:49:32;20.03;63.58
22917;DHT22;11624;53.250;7.456;2022-09-09T04:52:00;20.05;63.57
22917;DHT22;11624;53.250;7.456;2022-09-09T04:54:30;20.03;63.66
22917;DHT22;11624;53.250;7.456;2022-09-09T04:57:00;20.04;63.68
22917;DHT22;11624;53.250;7.456;2022-09-09T04:59:28;20.06;63.63
22917;DHT22;11624;53.250;7.456;2022-09-09T05:01:59;20.10;63.57
22917;DHT22;11624;53.250;7.456;2022-09-09T05:04:28;20.11;63.56
22917;DHT22;11624;53.250;7.456;2022-09-09T05:06:57;20.07;63.73
22917;DHT22;11624;53.250;7.456;2022-09-09T05:09:26;20.05;63.76
22917;DHT22;11624;53.250;7.456;2022-09-09T05:11:54;20.02;63.92
22917;DHT22;11624;53.250;7.456;2022-09-09T05:14:29;20.05;63.79
22917;DHT22;11624;53.250;7.456;2022-09-09T05:16:59;20.02;63.87
22917;DHT22;11624;53.250;7.456;2022-09-09T05:19:27;20.03;63.85
22917;DHT22;11624;53.250;7.456;2022-09-09T05:21:57;20.03;63.87
22917;DHT22;11624;53.250;7.456;2022-09-09T05:24:32;20.02;63.87
22917;DHT22;11624;53.250;7.456;2022-09-09T05:27:02;20.03;63.81
22917;DHT22;11624;53.250;7.456;2022-09-09T05:29:34;20.06;63.82
22917;DHT22;11624;53.250;7.456;2022-09-09T05:32:04;20.12;63.73
22917;DHT22;11624;53.250;7.456;2022-09-09T05:34:35;20.14;63.53
22917;DHT22;11624;53.250;7.456;2022-09-09T05:37:04;20.14;63.60
22917;DHT22;11624;53.250;7.456;2022-09-09T05:39:34;20.17;63.47
22917;DHT22;11624;53.250;7.456;2022-09-09T05:42:04;20.19;63.47
22917;DHT22;11624;53.250;7.456;2022-09-09T05:44:34;20.20;63.45
22917;DHT22;11624;53.250;7.456;2022-09-09T05:47:03;20.22;63.60
22917;DHT22;11624;53.250;7.456;2022-09-09T05:49:31;20.29;63.24
22917;DHT22;11624;53.250;7.456;2022-09-09T05:51:59;20.24;63.39
22917;DHT22;11624;53.250;7.456;2022-09-09T05:54:27;20.24;63.47
22917;DHT22;11624;53.250;7.456;2022-09-09T05:56:55;20.25;63.33
22917;DHT22;11624;53.250;7.456;2022-09-09T05:59:23;20.22;63.48
22917;DHT22;11624;53.250;7.456;2022-09-09T06:01:56;20.24;63.59
22917;DHT22;11624;53.250;7.456;2022-09-09T06:04:34;20.24;63.63
22917;DHT22;11624;53.250;7.456;2022-09-09T06:07:04;20.29;63.63
22917;DHT22;11624;53.250;7.456;2022-09-09T06:09:32;20.33;63.66
22917;DHT22;11624;53.250;7.456;2022-09-09T06:12:01;20.44;63.42
22917;DHT22;11624;53.250;7.456;2022-09-09T06:14:32;20.43;63.31
22917;DHT22;11624;53.250;7.456;2022-09-09T06:17:03;20.42;63.38
22917;DHT22;11624;53.250;7.456;2022-09-09T06:19:32;20.39;63.56
22917;DHT22;11624;53.250;7.456;2022-09-09T06:22:00;20.41;63.63
22917;DHT22;11624;53.250;7.456;2022-09-09T06:24:32;20.45;63.63
22917;DHT22;11624;53.250;7.456;2022-09-09T06:27:02;20.42;63.88
22917;DHT22;11624;53.250;7.456;2022-09-09T06:29:33;20.53;63.51
22917;DHT22;11624;53.250;7.456;2022-09-09T06:32:03;20.55;63.60
22917;DHT22;11624;53.250;7.456;2022-09-09T06:34:31;20.59;63.39
22917;DHT22;11624;53.250;7.456;2022-09-09T06:37:00;20.74;63.05
22917;DHT22;11624;53.250;7.456;2022-09-09T06:39:34;20.73;63.44
22917;DHT22;11624;53.250;7.456;2022-09-09T06:42:03;20.80;63.39
22917;DHT22;11624;53.250;7.456;2022-09-09T06:44:49;20.89;62.91
22917;DHT22;11624;53.250;7.456;2022-09-09T06:47:25;20.88;63.02
22917;DHT22;11624;53.250;7.456;2022-09-09T06:49:55;20.92;63.01
22917;DHT22;11624;53.250;7.456;2022-09-09T06:52:24;20.96;62.87
22917;DHT22;11624;53.250;7.456;2022-09-09T06:54:54;20.98;62.79
22917;DHT22;11624;53.250;7.456;2022-09-09T06:57:22;21.01;63.10
22917;DHT22;11624;53.250;7.456;2022-09-09T07:00:07;21.08;63.03
22917;DHT22;11624;53.250;7.456;2022-09-09T07:02:37;21.14;62.77
22917;DHT22;11624;53.250;7.456;2022-09-09T07:05:08;21.13;62.74
22917;DHT22;11624;53.250;7.456;2022-09-09T07:07:37;21.20;62.72
22917;DHT22;11624;53.250;7.456;2022-09-09T07:10:08;21.23;62.47
22917;DHT22;11624;53.250;7.456;2022-09-09T07:12:37;21.27;62.37
22917;DHT22;11624;53.250;7.456;2022-09-09T07:15:09;21.31;62.41
22917;DHT22;11624;53.250;7.456;2022-09-09T07:17:42;21.35;61.87
22917;DHT22;11624;53.250;7.456;2022-09-09T07:20:11;21.28;61.98
22917;DHT22;11624;53.250;7.456;2022-09-09T07:22:39;21.27;62.08
22917;DHT22;11624;53.250;7.456;2022-09-09T07:25:09;21.27;62.30
22917;DHT22;11624;53.250;7.456;2022-09-09T07:27:37;21.33;62.24
22917;DHT22;11624;53.250;7.456;2022-09-09T07:30:07;21.35;62.31
22917;DHT22;11624;53.250;7.456;2022-09-09T07:32:35;21.43;62.57
22917;DHT22;11624;53.250;7.456;2022-09-09T07:35:05;21.52;62.02
22917;DHT22;11624;53.250;7.456;2022-09-09T07:37:36;21.49;61.94
22917;DHT22;11624;53.250;7.456;2022-09-09T07:40:05;21.53;61.84
22917;DHT22;11624;53.250;7.456;2022-09-09T07:42:34;21.57;62.05
22917;DHT22;11624;53.250;7.456;2022-09-09T07:45:03;21.67;62.41
22917;DHT22;11624;53.250;7.456;2022-09-09T07:47:32;21.89;62.22
22917;DHT22;11624;53.250;7.456;2022-09-09T07:50:01;22.04;62.58
22917;DHT22;11624;53.250;7.456;2022-09-09T07:52:33;22.39;61.61
22917;DHT22;11624;53.250;7.456;2022-09-09T07:55:04;22.62;60.45
22917;DHT22;11624;53.250;7.456;2022-09-09T07:57:33;22.65;60.14
22917;DHT22;11624;53.250;7.456;2022-09-09T08:00:03;22.69;60.04
22917;DHT22;11624;53.250;7.456;2022-09-09T08:02:38;22.80;60.58
22917;DHT22;11624;53.250;7.456;2022-09-09T08:05:07;23.18;61.18
22917;DHT22;11624;53.250;7.456;2022-09-09T08:07:40;23.59;59.22
22917;DHT22;11624;53.250;7.456;2022-09-09T08:10:09;23.72;58.86
22917;DHT22;11624;53.250;7.456;2022-09-09T08:12:40;23.79;58.07
22917;DHT22;11624;53.250;7.456;2022-09-09T08:15:28;23.81;58.00
22917;DHT22;11624;53.250;7.456;2022-09-09T08:17:56;23.94;57.30
22917;DHT22;11624;53.250;7.456;2022-09-09T08:20:25;23.98;58.02
22917;DHT22;11624;53.250;7.456;2022-09-09T08:22:56;24.13;57.53
22917;DHT22;11624;53.250;7.456;2022-09-09T08:25:25;24.17;56.82
22917;DHT22;11624;53.250;7.456;2022-09-09T08:27:53;24.13;56.29
22917;DHT22;11624;53.250;7.456;2022-09-09T08:30:22;24.12;55.68
22917;DHT22;11624;53.250;7.456;2022-09-09T08:32:50;23.97;56.04
22917;DHT22;11624;53.250;7.456;2022-09-09T08:35:20;23.98;56.03
22917;DHT22;11624;53.250;7.456;2022-09-09T08:37:53;24.05;57.73
22917;DHT22;11624;53.250;7.456;2022-09-09T08:40:28;24.32;57.76
22917;DHT22;11624;53.250;7.456;2022-09-09T08:42:58;24.44;55.09
22917;DHT22;11624;53.250;7.456;2022-09-09T08:45:31;24.33;53.78
22917;DHT22;11624;53.250;7.456;2022-09-09T08:48:17;24.19;54.59
22917;DHT22;11624;53.250;7.456;2022-09-09T08:50:50;24.16;55.71
22917;DHT22;11624;53.250;7.456;2022-09-09T08:53:28;24.23;55.02
22917;DHT22;11624;53.250;7.456;2022-09-09T08:56:02;24.26;55.25
22917;DHT22;11624;53.250;7.456;2022-09-09T08:58:47;24.46;54.96
22917;DHT22;11624;53.250;7.456;2022-09-09T09:01:44;24.74;53.06
22917;DHT22;11624;53.250;7.456;2022-09-09T09:04:31;24.86;52.62
22917;DHT22;11624;53.250;7.456;2022-09-09T09:07:10;24.84;51.91
22917;DHT22;11624;53.250;7.456;2022-09-09T09:09:48;24.98;53.27
22917;DHT22;11624;53.250;7.456;2022-09-09T09:12:31;25.30;52.72
22917;DHT22;11624;53.250;7.456;2022-09-09T09:15:11;25.31;51.20
22917;DHT22;11624;53.250;7.456;2022-09-09T09:17:43;25.24;51.44
22917;DHT22;11624;53.250;7.456;2022-09-09T09:20:12;25.34;52.15
22917;DHT22;11624;53.250;7.456;2022-09-09T09:22:48;25.45;50.63
22917;DHT22;11624;53.250;7.456;2022-09-09T09:25:21;25.34;50.42
22917;DHT22;11624;53.250;7.456;2022-09-09T09:27:58;25.14;51.62
22917;DHT22;11624;53.250;7.456;2022-09-09T09:30:35;25.07;52.03
22917;DHT22;11624;53.250;7.456;2022-09-09T09:33:13;24.91;52.29
22917;DHT22;11624;53.250;7.456;2022-09-09T09:35:43;24.87;52.56
22917;DHT22;11624;53.250;7.456;2022-09-09T09:38:17;24.97;52.99
22917;DHT22;11624;53.250;7.456;2022-09-09T09:41:07;25.27;51.97
22917;DHT22;11624;53.250;7.456;2022-09-09T09:43:40;25.59;51.78
22917;DHT22;11624;53.250;7.456;2022-09-09T09:46:20;26.27;51.04
22917;DHT22;11624;53.250;7.456;2022-09-09T09:48:58;26.65;48.87
22917;DHT22;11624;53.250;7.456;2022-09-09T09:51:29;27.17;47.79
22917;DHT22;11624;53.250;7.456;2022-09-09T09:54:13;27.50;46.15
22917;DHT22;11624;53.250;7.456;2022-09-09T09:56:46;27.53;47.54
22917;DHT22;11624;53.250;7.456;2022-09-09T09:59:35;28.24;47.18
22917;DHT22;11624;53.250;7.456;2022-09-09T10:02:17;29.02;42.55
22917;DHT22;11624;53.250;7.456;2022-09-09T10:05:01;28.92;42.75
22917;DHT22;11624;53.250;7.456;2022-09-09T10:07:30;28.34;42.10
22917;DHT22;11624;53.250;7.456;2022-09-09T10:10:00;28.03;43.42
22917;DHT22;11624;53.250;7.456;2022-09-09T10:12:37;27.99;45.67
22917;DHT22;11624;53.250;7.456;2022-09-09T10:15:23;28.25;43.55
22917;DHT22;11624;53.250;7.456;2022-09-09T10:18:04;28.14;42.58
22917;DHT22;11624;53.250;7.456;2022-09-09T10:20:42;27.74;42.98
22917;DHT22;11624;53.250;7.456;2022-09-09T10:23:24;27.36;44.01
22917;DHT22;11624;53.250;7.456;2022-09-09T10:26:09;27.10;44.13
22917;DHT22;11624;53.250;7.456;2022-09-09T10:29:03;26.76;45.34
22917;DHT22;11624;53.250;7.456;2022-09-09T10:31:42;26.64;46.99
22917;DHT22;11624;53.250;7.456;2022-09-09T10:34:20;26.67;45.89
22917;DHT22;11624;53.250;7.456;2022-09-09T10:36:57;26.34;46.55
22917;DHT22;11624;53.250;7.456;2022-09-09T10:39:34;26.07;47.54
22917;DHT22;11624;53.250;7.456;2022-09-09T10:42:11;25.97;48.36
22917;DHT22;11624;53.250;7.456;2022-09-09T10:44:53;25.88;48.34
22917;DHT22;11624;53.250;7.456;2022-09-09T10:47:41;25.90;49.27
22917;DHT22;11624;53.250;7.456;2022-09-09T10:50:31;26.22;49.68
22917;DHT22;11624;53.250;7.456;2022-09-09T10:53:33;27.36;49.72
22917;DHT22;11624;53.250;7.456;2022-09-09T10:56:06;28.10;45.96
22917;DHT22;11624;53.250;7.456;2022-09-09T10:58:41;27.93;43.51
22917;DHT22;11624;53.250;7.456;2022-09-09T11:01:16;27.42;43.19
22917;DHT22;11624;53.250;7.456;2022-09-09T11:03:51;26.86;44.77
22917;DHT22;11624;53.250;7.456;2022-09-09T11:06:26;27.07;47.40
22917;DHT22;11624;53.250;7.456;2022-09-09T11:08:58;28.21;45.41
22917;DHT22;11624;53.250;7.456;2022-09-09T11:11:31;29.36;42.84
22917;DHT22;11624;53.250;7.456;2022-09-09T11:14:03;29.91;38.49
22917;DHT22;11624;53.250;7.456;2022-09-09T11:16:38;30.51;39.32
22917;DHT22;11624;53.250;7.456;2022-09-09T11:19:18;30.96;37.22
22917;DHT22;11624;53.250;7.456;2022-09-09T11:21:49;31.51;34.06
22917;DHT22;11624;53.250;7.456;2022-09-09T11:24:22;31.30;34.88
22917;DHT22;11624;53.250;7.456;2022-09-09T11:26:56;31.38;34.73
22917;DHT22;11624;53.250;7.456;2022-09-09T11:32:38;31.73;34.42
22917;DHT22;11624;53.250;7.456;2022-09-09T11:35:20;31.82;33.34
22917;DHT22;11624;53.250;7.456;2022-09-09T11:38:16;32.24;32.76
22917;DHT22;11624;53.250;7.456;2022-09-09T11:40:47;32.73;32.28
22917;DHT22;11624;53.250;7.456;2022-09-09T11:43:24;32.81;31.33
22917;DHT22;11624;53.250;7.456;2022-09-09T11:45:55;32.61;30.98
22917;DHT22;11624;53.250;7.456;2022-09-09T11:48:32;32.22;31.76
22917;DHT22;11624;53.250;7.456;2022-09-09T11:51:06;32.26;32.86
22917;DHT22;11624;53.250;7.456;2022-09-09T11:53:50;31.59;32.35
22917;DHT22;11624;53.250;7.456;2022-09-09T11:56:27;30.77;33.68
22917;DHT22;11624;53.250;7.456;2022-09-09T11:58:59;30.08;35.76
22917;DHT22;11624;53.250;7.456;2022-09-09T12:01:37;29.71;37.41
22917;DHT22;11624;53.250;7.456;2022-09-09T12:04:16;30.13;36.84
22917;DHT22;11624;53.250;7.456;2022-09-09T12:06:52;29.91;37.90
22917;DHT22;11624;53.250;7.456;2022-09-09T12:09:39;29.51;37.82
22917;DHT22;11624;53.250;7.456;2022-09-09T12:12:33;29.04;39.54
22917;DHT22;11624;53.250;7.456;2022-09-09T12:15:25;28.90;40.33
22917;DHT22;11624;53.250;7.456;2022-09-09T12:17:57;29.13;40.29
22917;DHT22;11624;53.250;7.456;2022-09-09T12:20:34;29.17;38.99
22917;DHT22;11624;53.250;7.456;2022-09-09T12:23:21;29.30;39.38
22917;DHT22;11624;53.250;7.456;2022-09-09T12:29:03;31.14;36.24
22917;DHT22;11624;53.250;7.456;2022-09-09T12:31:38;31.84;33.70
22917;DHT22;11624;53.250;7.456;2022-09-09T12:34:15;32.19;32.41
22917;DHT22;11624;53.250;7.456;2022-09-09T12:36:47;32.55;31.76
22917;DHT22;11624;53.250;7.456;2022-09-09T12:39:27;32.25;30.98
22917;DHT22;11624;53.250;7.456;2022-09-09T12:41:57;31.63;32.30
22917;DHT22;11624;53.250;7.456;2022-09-09T12:44:26;30.82;33.02
22917;DHT22;11624;53.250;7.456;2022-09-09T12:46:56;30.05;34.52
22917;DHT22;11624;53.250;7.456;2022-09-09T12:49:29;29.65;35.95
22917;DHT22;11624;53.250;7.456;2022-09-09T12:52:03;29.39;36.34
22917;DHT22;11624;53.250;7.456;2022-09-09T12:54:35;29.26;37.71
22917;DHT22;11624;53.250;7.456;2022-09-09T12:57:05;29.14;36.96
22917;DHT22;11624;53.250;7.456;2022-09-09T12:59:37;29.05;38.37
22917;DHT22;11624;53.250;7.456;2022-09-09T13:02:17;28.93;38.05
22917;DHT22;11624;53.250;7.456;2022-09-09T13:04:46;28.79;37.87
22917;DHT22;11624;53.250;7.456;2022-09-09T13:07:15;28.58;39.33
22917;DHT22;11624;53.250;7.456;2022-09-09T13:09:45;28.40;40.88
22917;DHT22;11624;53.250;7.456;2022-09-09T13:12:16;27.95;42.35
22917;DHT22;11624;53.250;7.456;2022-09-09T13:14:48;27.74;44.77
22917;DHT22;11624;53.250;7.456;2022-09-09T13:17:20;28.02;44.62
22917;DHT22;11624;53.250;7.456;2022-09-09T13:19:50;28.47;45.12
22917;DHT22;11624;53.250;7.456;2022-09-09T13:22:29;28.60;42.84
22917;DHT22;11624;53.250;7.456;2022-09-09T13:25:04;28.40;43.06
22917;DHT22;11624;53.250;7.456;2022-09-09T13:27:35;28.12;44.24
22917;DHT22;11624;53.250;7.456;2022-09-09T13:30:20;27.94;43.77
22917;DHT22;11624;53.250;7.456;2022-09-09T13:33:00;27.83;44.34
22917;DHT22;11624;53.250;7.456;2022-09-09T13:35:28;27.70;45.08
22917;DHT22;11624;53.250;7.456;2022-09-09T13:37:58;27.71;45.79
22917;DHT22;11624;53.250;7.456;2022-09-09T13:40:28;27.78;45.47
22917;DHT22;11624;53.250;7.456;2022-09-09T13:42:57;27.76;45.94
22917;DHT22;11624;53.250;7.456;2022-09-09T13:45:26;27.80;46.41
22917;DHT22;11624;53.250;7.456;2022-09-09T13:47:55;27.82;46.60
22917;DHT22;11624;53.250;7.456;2022-09-09T13:50:25;27.82;46.80
22917;DHT22;11624;53.250;7.456;2022-09-09T13:52:55;27.91;45.14
22917;DHT22;11624;53.250;7.456;2022-09-09T13:55:26;27.88;45.40
22917;DHT22;11624;53.250;7.456;2022-09-09T13:57:57;27.99;46.98
22917;DHT22;11624;53.250;7.456;2022-09-09T14:00:29;28.16;46.26
22917;DHT22;11624;53.250;7.456;2022-09-09T14:02:58;28.24;45.89
22917;DHT22;11624;53.250;7.456;2022-09-09T14:05:30;28.23;45.14
22917;DHT22;11624;53.250;7.456;2022-09-09T14:08:00;28.06;43.63
22917;DHT22;11624;53.250;7.456;2022-09-09T14:10:28;27.95;44.38
22917;DHT22;11624;53.250;7.456;2022-09-09T14:12:57;28.04;45.14
22917;DHT22;11624;53.250;7.456;2022-09-09T14:15:25;28.16;43.63
22917;DHT22;11624;53.250;7.456;2022-09-09T14:17:54;28.03;42.91
22917;DHT22;11624;53.250;7.456;2022-09-09T14:20:22;27.84;42.34
22917;DHT22;11624;53.250;7.456;2022-09-09T14:22:50;27.63;42.68
22917;DHT22;11624;53.250;7.456;2022-09-09T14:25:20;27.43;43.27
22917;DHT22;11624;53.250;7.456;2022-09-09T14:27:48;27.29;43.39
22917;DHT22;11624;53.250;7.456;2022-09-09T14:30:19;27.02;44.64
22917;DHT22;11624;53.250;7.456;2022-09-09T14:32:47;26.82;45.22
22917;DHT22;11624;53.250;7.456;2022-09-09T14:35:15;26.77;44.41
22917;DHT22;11624;53.250;7.456;2022-09-09T14:37:44;26.48;43.70
22917;DHT22;11624;53.250;7.456;2022-09-09T14:40:13;26.30;43.91
22917;DHT22;11624;53.250;7.456;2022-09-09T14:42:43;26.19;43.03
22917;DHT22;11624;53.250;7.456;2022-09-09T14:45:11;26.10;43.39
22917;DHT22;11624;53.250;7.456;2022-09-09T14:47:41;25.93;44.04
22917;DHT22;11624;53.250;7.456;2022-09-09T14:50:09;25.89;44.32
22917;DHT22;11624;53.250;7.456;2022-09-09T14:52:39;25.93;44.31
22917;DHT22;11624;53.250;7.456;2022-09-09T14:55:07;25.97;44.30
22917;DHT22;11624;53.250;7.456;2022-09-09T14:57:36;26.02;45.22
22917;DHT22;11624;53.250;7.456;2022-09-09T15:00:06;26.18;44.84
22917;DHT22;11624;53.250;7.456;2022-09-09T15:02:35;26.21;45.07
22917;DHT22;11624;53.250;7.456;2022-09-09T15:05:05;26.27;44.83
22917;DHT22;11624;53.250;7.456;2022-09-09T15:07:33;26.34;45.12
22917;DHT22;11624;53.250;7.456;2022-09-09T15:10:03;26.47;44.70
22917;DHT22;11624;53.250;7.456;2022-09-09T15:12:31;26.47;44.59
22917;DHT22;11624;53.250;7.456;2022-09-09T15:14:59;26.55;44.19
22917;DHT22;11624;53.250;7.456;2022-09-09T15:17:27;26.60;45.04
22917;DHT22;11624;53.250;7.456;2022-09-09T15:19:56;26.80;45.51
22917;DHT22;11624;53.250;7.456;2022-09-09T15:22:25;27.05;44.35
22917;DHT22;11624;53.250;7.456;2022-09-09T15:24:53;27.36;43.69
22917;DHT22;11624;53.250;7.456;2022-09-09T15:27:21;27.66;43.03
22917;DHT22;11624;53.250;7.456;2022-09-09T15:29:50;27.83;42.76
22917;DHT22;11624;53.250;7.456;2022-09-09T15:32:18;27.86;42.71
22917;DHT22;11624;53.250;7.456;2022-09-09T15:34:47;27.79;42.60
22917;DHT22;11624;53.250;7.456;2022-09-09T15:37:18;27.71;43.37
22917;DHT22;11624;53.250;7.456;2022-09-09T15:39:47;27.68;43.97
22917;DHT22;11624;53.250;7.456;2022-09-09T15:42:15;27.66;44.87
22917;DHT22;11624;53.250;7.456;2022-09-09T15:44:43;27.66;44.92
22917;DHT22;11624;53.250;7.456;2022-09-09T15:47:12;27.61;45.08
22917;DHT22;11624;53.250;7.456;2022-09-09T15:49:41;27.40;45.41
22917;DHT22;11624;53.250;7.456;2022-09-09T15:52:10;27.21;45.54
22917;DHT22;11624;53.250;7.456;2022-09-09T15:54:38;27.01;45.72
22917;DHT22;11624;53.250;7.456;2022-09-09T15:57:11;26.84;45.99
22917;DHT22;11624;53.250;7.456;2022-09-09T15:59:40;26.77;46.76
22917;DHT22;11624;53.250;7.456;2022-09-09T16:02:09;26.70;47.22
22917;DHT22;11624;53.250;7.456;2022-09-09T16:04:37;26.61;47.53
22917;DHT22;11624;53.250;7.456;2022-09-09T16:07:05;26.51;47.86
22917;DHT22;11624;53.250;7.456;2022-09-09T16:09:34;26.40;48.41
22917;DHT22;11624;53.250;7.456;2022-09-09T16:12:03;26.35;49.03